Time;durP1;ratioP1;P1;durP2;ratioP2;P2;SDS_P1;SDS_P2;PMS_P1;PMS_P2;Temp;Humidity;BMP_temperature;BMP_pressure;BME280_temperature;BME280_humidity;BME280_pressure;Samples;Min_cycle;Max_cycle;Signal;HPM_P1;HPM_P2
2024/01/28 00:01:56;;;;;;;39.03;19.48;;;;;;;-145.63;100.00;61273.97;5027617;28;20480;-67
2024/01/28 00:04:22;;;;;;;37.00;19.50;;;;;;;-145.63;100.00;61273.97;5015659;28;20030;-67
2024/01/28 00:06:48;;;;;;;33.88;19.20;;;;;;;-145.63;100.00;61273.97;5025974;28;20029;-67
2024/01/28 00:09:14;;;;;;;35.25;20.25;;;;;;;-145.63;100.00;61273.97;5025868;28;20025;-67
2024/01/28 00:11:39;;;;;;;33.90;19.58;;;;;;;-145.63;100.00;61273.97;5031563;28;20384;-67
2024/01/28 00:14:06;;;;;;;35.10;18.83;;;;;;;-145.63;100.00;61273.97;5034718;28;20044;-67
2024/01/28 00:16:31;;;;;;;38.67;20.35;;;;;;;-145.63;100.00;61273.97;5015957;28;20088;-66
2024/01/28 00:19:00;;;;;;;38.45;20.90;;;;;;;-145.63;100.00;61273.97;5019188;28;20029;-66
2024/01/28 00:21:27;;;;;;;36.53;21.83;;;;;;;-145.63;100.00;61273.97;5017714;28;20387;-67
2024/01/28 00:23:52;;;;;;;39.63;21.05;;;;;;;-145.63;100.00;61273.97;5021506;28;20025;-67
2024/01/28 00:26:19;;;;;;;46.33;23.10;;;;;;;-145.63;100.00;61273.97;5034501;28;20448;-66
2024/01/28 00:28:46;;;;;;;43.53;22.23;;;;;;;-145.63;100.00;61273.97;5017542;28;20034;-65
2024/01/28 00:31:12;;;;;;;36.83;21.10;;;;;;;-145.63;100.00;61273.97;5017647;28;20091;-66
2024/01/28 00:33:38;;;;;;;43.08;22.65;;;;;;;-145.63;100.00;61273.97;5025999;28;20037;-66
2024/01/28 00:36:04;;;;;;;44.13;22.48;;;;;;;-145.63;100.00;61273.97;5028916;28;20053;-66
2024/01/28 00:38:31;;;;;;;41.58;22.08;;;;;;;-145.63;100.00;61273.97;5026379;28;20060;-67
2024/01/28 00:41:00;;;;;;;45.97;23.33;;;;;;;-145.63;100.00;61273.97;5029507;28;20041;-66
2024/01/28 00:43:27;;;;;;;46.53;23.10;;;;;;;-145.63;100.00;61273.97;5032283;28;20025;-65
2024/01/28 00:45:53;;;;;;;45.22;23.73;;;;;;;-145.63;100.00;61273.97;5018493;28;20030;-67
2024/01/28 00:48:19;;;;;;;41.65;22.60;;;;;;;-145.63;100.00;61273.97;5024841;28;20052;-67
2024/01/28 00:50:44;;;;;;;43.30;23.10;;;;;;;-145.63;100.00;61273.97;5021478;28;20490;-68
2024/01/28 00:53:10;;;;;;;45.38;22.45;;;;;;;-145.63;100.00;61273.97;5018978;28;20037;-67
2024/01/28 00:55:36;;;;;;;44.65;23.25;;;;;;;-145.63;100.00;61273.97;5016661;28;20030;-66
2024/01/28 00:58:04;;;;;;;42.35;22.23;;;;;;;-145.63;100.00;61273.97;5033716;28;20033;-67
2024/01/28 01:00:31;;;;;;;40.97;22.80;;;;;;;-145.63;100.00;61273.97;5022542;28;20113;-67
2024/01/28 01:02:56;;;;;;;42.75;22.90;;;;;;;-145.63;100.00;61273.97;5019487;28;20041;-65
2024/01/28 01:05:22;;;;;;;46.72;23.92;;;;;;;-145.63;100.00;61273.97;5032067;28;20036;-67
2024/01/28 01:07:48;;;;;;;49.85;24.50;;;;;;;-145.63;100.00;61273.97;5014517;28;20084;-68
2024/01/28 01:10:14;;;;;;;43.45;23.05;;;;;;;-145.63;100.00;61273.97;5014915;28;20038;-69
2024/01/28 01:12:40;;;;;;;46.17;23.73;;;;;;;-145.63;100.00;61273.97;5027613;28;20029;-68
2024/01/28 01:15:06;;;;;;;41.75;23.52;;;;;;;-145.63;100.00;61273.97;5025749;28;20084;-67
2024/01/28 01:17:32;;;;;;;46.08;24.77;;;;;;;-145.63;100.00;61273.97;5017585;28;20035;-68
2024/01/28 01:19:57;;;;;;;46.60;23.17;;;;;;;-145.63;100.00;61273.97;5018131;28;20041;-67
2024/01/28 01:22:23;;;;;;;46.63;23.92;;;;;;;-145.63;100.00;61273.97;5031490;28;20029;-68
2024/01/28 01:24:49;;;;;;;45.30;24.27;;;;;;;-145.63;100.00;61273.97;5018717;28;20034;-67
2024/01/28 01:27:14;;;;;;;46.72;24.50;;;;;;;-145.63;100.00;61273.97;5019877;28;20022;-67
2024/01/28 01:29:40;;;;;;;48.80;26.05;;;;;;;-145.63;100.00;61273.97;5018343;28;20072;-67
2024/01/28 01:32:05;;;;;;;48.83;25.17;;;;;;;-145.63;100.00;61273.97;5027951;28;20143;-67
2024/01/28 01:34:31;;;;;;;50.55;25.25;;;;;;;-145.63;100.00;61273.97;5021942;28;20059;-68
2024/01/28 01:36:57;;;;;;;48.03;25.65;;;;;;;-145.63;100.00;61273.97;5018570;28;20458;-67
2024/01/28 01:39:22;;;;;;;44.72;24.92;;;;;;;-145.63;100.00;61273.97;5023779;28;20056;-67
2024/01/28 01:41:48;;;;;;;47.08;25.20;;;;;;;-145.63;100.00;61273.97;5027120;28;20088;-69
2024/01/28 01:44:14;;;;;;;48.63;25.30;;;;;;;-145.63;100.00;61273.97;5019907;28;20060;-67
2024/01/28 01:46:44;;;;;;;49.83;26.42;;;;;;;-145.63;100.00;61273.97;5034749;28;20030;-66
2024/01/28 01:49:11;;;;;;;47.28;25.55;;;;;;;-145.63;100.00;61273.97;5029586;28;20025;-66
2024/01/28 01:51:38;;;;;;;46.20;25.63;;;;;;;-145.63;100.00;61273.97;5021148;28;20022;-67
2024/01/28 01:54:04;;;;;;;46.67;26.08;;;;;;;-145.63;100.00;61273.97;5021497;28;20049;-67
2024/01/28 01:56:34;;;;;;;47.85;26.05;;;;;;;-145.63;100.00;61273.97;5025470;28;20099;-70
2024/01/28 01:59:00;;;;;;;47.42;24.77;;;;;;;-145.63;100.00;61273.97;5033398;28;20769;-67
2024/01/28 02:01:28;;;;;;;46.03;26.38;;;;;;;-145.63;100.00;61273.97;5015598;28;20116;-67
2024/01/28 02:03:55;;;;;;;52.50;26.35;;;;;;;-145.63;100.00;61273.97;5032355;28;20029;-67
2024/01/28 02:06:21;;;;;;;56.08;28.60;;;;;;;-145.63;100.00;61273.97;5021069;28;20044;-69
2024/01/28 02:08:47;;;;;;;51.53;27.85;;;;;;;-145.63;100.00;61273.97;5017706;28;20335;-66
2024/01/28 02:11:13;;;;;;;51.25;26.85;;;;;;;-145.63;100.00;61273.97;5020165;28;20109;-67
2024/01/28 02:13:39;;;;;;;52.10;25.88;;;;;;;-145.63;100.00;61273.97;5033225;28;20547;-66
2024/01/28 02:16:05;;;;;;;58.15;28.55;;;;;;;-145.63;100.00;61273.97;5026325;28;20041;-66
2024/01/28 02:18:30;;;;;;;53.83;27.50;;;;;;;-145.63;100.00;61273.97;5023120;28;20033;-66
2024/01/28 02:20:56;;;;;;;58.25;28.60;;;;;;;-145.63;100.00;61273.97;5030535;28;20030;-65
2024/01/28 02:23:22;;;;;;;64.32;31.80;;;;;;;-145.63;100.00;61273.97;5031457;28;20022;-67
2024/01/28 02:25:49;;;;;;;51.85;27.90;;;;;;;-145.63;100.00;61273.97;5013747;28;20099;-66
2024/01/28 02:28:16;;;;;;;61.65;30.13;;;;;;;-145.63;100.00;61273.97;5030382;28;20060;-67
2024/01/28 02:30:42;;;;;;;54.65;28.60;;;;;;;-145.63;100.00;61273.97;5026975;28;20444;-66
2024/01/28 02:33:07;;;;;;;58.92;29.08;;;;;;;-145.63;100.00;61273.97;5021069;28;20068;-67
2024/01/28 02:35:33;;;;;;;58.47;29.40;;;;;;;-145.63;100.00;61273.97;5029309;28;20044;-67
2024/01/28 02:37:59;;;;;;;56.30;29.40;;;;;;;-145.63;100.00;61273.97;5013171;28;20468;-67
2024/01/28 02:40:24;;;;;;;61.60;29.58;;;;;;;-145.63;100.00;61273.97;5030248;28;20045;-66
2024/01/28 02:42:50;;;;;;;54.30;28.35;;;;;;;-145.63;100.00;61273.97;5018602;28;20053;-67
2024/01/28 02:45:17;;;;;;;56.05;29.95;;;;;;;-145.63;100.00;61273.97;5035397;28;20484;-68
2024/01/28 02:47:43;;;;;;;55.35;27.65;;;;;;;-145.63;100.00;61273.97;5013512;28;20053;-68
2024/01/28 02:50:09;;;;;;;58.00;27.90;;;;;;;-145.63;100.00;61273.97;5022784;28;20034;-67
2024/01/28 02:52:35;;;;;;;55.85;27.42;;;;;;;-145.63;100.00;61273.97;5017483;28;20114;-66
2024/01/28 02:55:00;;;;;;;55.63;27.35;;;;;;;-145.63;100.00;61273.97;5029102;28;20033;-66
2024/01/28 02:57:26;;;;;;;52.80;26.23;;;;;;;-145.63;100.00;61273.97;5020756;28;20033;-65
2024/01/28 02:59:52;;;;;;;58.33;28.33;;;;;;;-145.63;100.00;61273.97;5022166;28;20065;-67
2024/01/28 03:02:18;;;;;;;55.65;28.52;;;;;;;-145.63;100.00;61273.97;5034834;28;20025;-66
2024/01/28 03:04:44;;;;;;;54.97;29.00;;;;;;;-145.63;100.00;61273.97;5015344;28;20038;-66
2024/01/28 03:07:10;;;;;;;60.00;30.05;;;;;;;-145.63;100.00;61273.97;5018577;28;20383;-66
2024/01/28 03:09:35;;;;;;;59.00;29.05;;;;;;;-145.63;100.00;61273.97;5027497;28;20463;-67
2024/01/28 03:12:01;;;;;;;51.70;27.92;;;;;;;-145.63;100.00;61273.97;5028059;28;20067;-66
2024/01/28 03:14:27;;;;;;;58.42;29.55;;;;;;;-145.63;100.00;61273.97;5034209;28;20037;-66
2024/01/28 03:16:53;;;;;;;56.63;29.17;;;;;;;-145.63;100.00;61273.97;5016955;28;20030;-66
2024/01/28 03:19:18;;;;;;;53.80;29.30;;;;;;;-145.63;100.00;61273.97;5033784;28;20487;-67
2024/01/28 03:21:44;;;;;;;56.88;30.48;;;;;;;-145.63;100.00;61273.97;5035003;28;20034;-66
2024/01/28 03:24:10;;;;;;;57.35;29.55;;;;;;;-145.63;100.00;61273.97;5035419;28;20053;-68
2024/01/28 03:26:35;;;;;;;60.25;31.08;;;;;;;-145.63;100.00;61273.97;5027489;28;20025;-67
2024/01/28 03:29:04;;;;;;;58.05;31.25;;;;;;;-145.63;100.00;61273.97;5016652;28;20791;-67
2024/01/28 03:31:30;;;;;;;59.20;30.40;;;;;;;-145.63;100.00;61273.97;5025025;28;20101;-66
2024/01/28 03:33:55;;;;;;;58.70;31.80;;;;;;;-145.63;100.00;61273.97;5019419;28;20033;-68
2024/01/28 03:36:21;;;;;;;58.75;31.63;;;;;;;-145.63;100.00;61273.97;5016594;28;20092;-66
2024/01/28 03:38:47;;;;;;;59.20;30.48;;;;;;;-145.63;100.00;61273.97;5027552;28;20045;-66
2024/01/28 03:41:13;;;;;;;54.95;29.05;;;;;;;-145.63;100.00;61273.97;5016017;28;20034;-67
2024/01/28 03:43:39;;;;;;;57.90;29.17;;;;;;;-145.63;100.00;61273.97;5030049;28;20045;-67
2024/01/28 03:46:09;;;;;;;51.53;28.90;;;;;;;-145.63;100.00;61273.97;5029028;28;20034;-67
2024/01/28 03:48:35;;;;;;;57.92;28.77;;;;;;;-145.63;100.00;61273.97;5026968;28;20025;-67
2024/01/28 03:51:02;;;;;;;57.03;29.23;;;;;;;-145.63;100.00;61273.97;5018758;28;20513;-68
2024/01/28 03:53:28;;;;;;;52.85;28.95;;;;;;;-145.63;100.00;61273.97;5016370;28;20174;-68
2024/01/28 03:55:53;;;;;;;52.65;27.98;;;;;;;-145.63;100.00;61273.97;5030799;28;20128;-67
2024/01/28 03:58:19;;;;;;;55.50;29.70;;;;;;;-145.63;100.00;61273.97;5031750;28;20034;-67
2024/01/28 04:00:45;;;;;;;52.78;28.25;;;;;;;-145.63;100.00;61273.97;5023472;28;20364;-68
2024/01/28 04:03:10;;;;;;;57.88;29.90;;;;;;;-145.63;100.00;61273.97;5022349;28;20493;-67
2024/01/28 04:05:36;;;;;;;57.38;29.98;;;;;;;-145.63;100.00;61273.97;5032127;28;20487;-67
2024/01/28 04:08:02;;;;;;;59.15;29.95;;;;;;;-145.63;100.00;61273.97;5015778;28;20080;-68
2024/01/28 04:10:28;;;;;;;52.65;27.77;;;;;;;-145.63;100.00;61273.97;5016960;28;20030;-68
2024/01/28 04:12:53;;;;;;;54.47;28.60;;;;;;;-145.63;100.00;61273.97;5028065;28;20070;-68
2024/01/28 04:15:19;;;;;;;48.88;26.42;;;;;;;-145.63;100.00;61273.97;5026300;28;20041;-67
2024/01/28 04:17:45;;;;;;;48.22;26.92;;;;;;;-145.63;100.00;61273.97;5018428;28;20061;-68
2024/01/28 04:20:11;;;;;;;50.65;26.38;;;;;;;-145.63;100.00;61273.97;5034583;28;20041;-69
2024/01/28 04:22:37;;;;;;;48.90;26.65;;;;;;;-145.63;100.00;61273.97;5034151;28;20036;-68
2024/01/28 04:25:03;;;;;;;51.85;27.08;;;;;;;-145.63;100.00;61273.97;5032194;28;20399;-68
2024/01/28 04:27:29;;;;;;;51.50;28.17;;;;;;;-145.63;100.00;61273.97;5034478;28;20021;-69
2024/01/28 04:29:55;;;;;;;48.40;25.77;;;;;;;-145.63;100.00;61273.97;5025251;28;20442;-68
2024/01/28 04:32:21;;;;;;;56.33;28.63;;;;;;;-145.63;100.00;61273.97;5034230;28;20026;-71
2024/01/28 04:34:46;;;;;;;53.33;26.55;;;;;;;-145.63;100.00;61273.97;5026567;28;20021;-69
2024/01/28 04:37:12;;;;;;;55.08;28.13;;;;;;;-145.63;100.00;61273.97;5019706;28;20033;-67
2024/01/28 04:39:38;;;;;;;53.65;27.17;;;;;;;-145.63;100.00;61273.97;5025258;28;20114;-68
2024/01/28 04:42:04;;;;;;;44.42;23.83;;;;;;;-145.63;100.00;61273.97;5027831;28;20049;-67
2024/01/28 04:44:31;;;;;;;46.95;24.58;;;;;;;-145.63;100.00;61273.97;5027364;28;20366;-68
2024/01/28 04:46:57;;;;;;;46.30;24.35;;;;;;;-145.63;100.00;61273.97;5027359;28;20049;-68
2024/01/28 04:49:24;;;;;;;48.42;24.90;;;;;;;-145.63;100.00;61273.97;5028521;28;20025;-68
2024/01/28 04:51:50;;;;;;;46.13;23.95;;;;;;;-145.63;100.00;61273.97;5021572;28;20030;-67
2024/01/28 04:54:16;;;;;;;45.55;24.70;;;;;;;-145.63;100.00;61273.97;5022105;28;20053;-68
2024/01/28 04:56:44;;;;;;;47.88;25.27;;;;;;;-145.63;100.00;61273.97;5026244;28;20514;-68
2024/01/28 04:59:10;;;;;;;44.42;22.73;;;;;;;-145.63;100.00;61273.97;5033009;28;20036;-69
2024/01/28 05:01:36;;;;;;;40.42;21.40;;;;;;;-145.63;100.00;61273.97;5022674;28;20026;-68
2024/01/28 05:04:03;;;;;;;37.08;21.50;;;;;;;-145.63;100.00;61273.97;5027816;28;20386;-69
2024/01/28 05:06:34;;;;;;;34.65;20.33;;;;;;;-145.63;100.00;61273.97;5033150;28;20043;-69
2024/01/28 05:09:03;;;;;;;39.83;22.33;;;;;;;-145.63;100.00;61273.97;5020363;28;20029;-68
2024/01/28 05:11:30;;;;;;;40.90;21.50;;;;;;;-145.63;100.00;61273.97;5016322;28;20133;-68
2024/01/28 05:13:55;;;;;;;38.70;21.58;;;;;;;-145.63;100.00;61273.97;5034105;28;20120;-68
2024/01/28 05:16:25;;;;;;;38.60;21.27;;;;;;;-145.63;100.00;61273.97;5024551;28;20155;-69
2024/01/28 05:18:51;;;;;;;40.65;22.27;;;;;;;-145.63;100.00;61273.97;5026495;28;20037;-68
2024/01/28 05:21:18;;;;;;;39.88;21.38;;;;;;;-145.63;100.00;61273.97;5032714;28;20076;-66
2024/01/28 05:23:47;;;;;;;35.97;21.08;;;;;;;-145.63;100.00;61273.97;5031314;28;20025;-68
2024/01/28 05:26:17;;;;;;;38.20;22.05;;;;;;;-145.63;100.00;61273.97;5024393;28;20038;-68
2024/01/28 05:28:44;;;;;;;40.10;20.70;;;;;;;-145.63;100.00;61273.97;5038214;28;20079;-68
2024/01/28 05:31:10;;;;;;;38.95;21.92;;;;;;;-145.63;100.00;61273.97;5026047;28;20029;-67
2024/01/28 05:33:40;;;;;;;38.53;20.33;;;;;;;-145.63;100.00;61273.97;5024724;28;20033;-67
2024/01/28 05:36:13;;;;;;;40.30;21.77;;;;;;;-145.63;100.00;61273.97;5031390;28;20052;-68
2024/01/28 05:38:39;;;;;;;37.78;21.33;;;;;;;-145.63;100.00;61273.97;5033938;28;20040;-67
2024/01/28 05:41:08;;;;;;;38.28;21.33;;;;;;;-145.63;100.00;61273.97;5032856;28;20038;-68
2024/01/28 05:43:35;;;;;;;36.35;19.92;;;;;;;-145.63;100.00;61273.97;5015420;28;20034;-68
2024/01/28 05:46:02;;;;;;;39.60;21.88;;;;;;;-145.63;100.00;61273.97;5024020;28;20045;-68
2024/01/28 05:48:28;;;;;;;36.67;20.95;;;;;;;-145.63;100.00;61273.97;5022776;28;20033;-68
2024/01/28 05:50:53;;;;;;;39.38;21.80;;;;;;;-145.63;100.00;61273.97;5028244;28;20042;-67
2024/01/28 05:53:19;;;;;;;35.35;19.65;;;;;;;-145.63;100.00;61273.97;5013801;28;20036;-68
2024/01/28 05:55:45;;;;;;;36.08;19.30;;;;;;;-145.63;100.00;61273.97;5026565;28;20430;-67
2024/01/28 05:58:11;;;;;;;38.78;20.92;;;;;;;-145.63;100.00;61273.97;5029531;28;20025;-67
2024/01/28 06:00:36;;;;;;;33.20;19.65;;;;;;;-145.63;100.00;61273.97;5051983;28;20026;-67
2024/01/28 06:03:04;;;;;;;35.33;19.63;;;;;;;-145.63;100.00;61273.97;5054052;28;20093;-66
2024/01/28 06:05:29;;;;;;;37.35;20.92;;;;;;;-145.63;100.00;61273.97;5038250;28;20040;-71
2024/01/28 06:07:55;;;;;;;34.15;19.80;;;;;;;-145.63;100.00;61273.97;5014944;28;20034;-68
2024/01/28 06:10:21;;;;;;;33.17;19.77;;;;;;;-145.63;100.00;61273.97;5029656;28;20030;-68
2024/01/28 06:12:46;;;;;;;29.88;19.10;;;;;;;-145.63;100.00;61273.97;5029148;28;20474;-68
2024/01/28 06:15:12;;;;;;;34.58;19.38;;;;;;;-145.63;100.00;61273.97;5033729;28;20088;-68
2024/01/28 06:17:38;;;;;;;34.30;20.45;;;;;;;-145.63;100.00;61273.97;5016007;28;20459;-67
2024/01/28 06:20:06;;;;;;;36.38;21.20;;;;;;;-145.63;100.00;61273.97;5032888;28;20034;-67
2024/01/28 06:22:32;;;;;;;36.10;21.20;;;;;;;-145.63;100.00;61273.97;5033051;28;20037;-67
2024/01/28 06:25:01;;;;;;;38.97;21.10;;;;;;;-145.63;100.00;61273.97;5019897;28;20471;-68
2024/01/28 06:27:30;;;;;;;36.50;21.33;;;;;;;-145.63;100.00;61273.97;5014662;28;20042;-66
2024/01/28 06:29:56;;;;;;;41.25;21.48;;;;;;;-145.63;100.00;61273.97;5015852;28;20037;-68
2024/01/28 06:32:22;;;;;;;36.35;21.00;;;;;;;-145.63;100.00;61273.97;5022669;28;20466;-68
2024/01/28 06:34:48;;;;;;;40.13;22.50;;;;;;;-145.63;100.00;61273.97;5028080;28;20546;-67
2024/01/28 06:37:15;;;;;;;40.75;21.90;;;;;;;-145.63;100.00;61273.97;5031042;28;20045;-67
2024/01/28 06:39:40;;;;;;;41.58;23.10;;;;;;;-145.63;100.00;61273.97;5026061;28;20394;-67
2024/01/28 06:42:06;;;;;;;43.53;22.73;;;;;;;-145.63;100.00;61273.97;5033050;28;20038;-69
2024/01/28 06:44:32;;;;;;;38.60;22.02;;;;;;;-145.63;100.00;61273.97;5038196;28;20124;-70
2024/01/28 06:47:02;;;;;;;42.80;22.00;;;;;;;-145.63;100.00;61273.97;5028650;28;20030;-68
2024/01/28 06:49:27;;;;;;;44.05;21.85;;;;;;;-145.63;100.00;61273.97;5020545;28;20052;-68
2024/01/28 06:51:53;;;;;;;40.63;22.83;;;;;;;-145.63;100.00;61273.97;5035676;28;20041;-67
2024/01/28 06:54:19;;;;;;;41.53;23.17;;;;;;;-145.63;100.00;61273.97;5024687;28;20129;-68
2024/01/28 06:56:45;;;;;;;42.13;23.88;;;;;;;-145.63;100.00;61273.97;5026016;28;20037;-69
2024/01/28 06:59:11;;;;;;;40.97;22.20;;;;;;;-145.63;100.00;61273.97;5019909;28;20061;-68
2024/01/28 07:01:37;;;;;;;41.00;23.08;;;;;;;-145.63;100.00;61273.97;5033912;28;20474;-67
2024/01/28 07:04:02;;;;;;;39.80;22.77;;;;;;;-145.63;100.00;61273.97;5022855;28;20022;-68
2024/01/28 07:06:28;;;;;;;45.13;25.40;;;;;;;-145.63;100.00;61273.97;5024882;28;20036;-68
2024/01/28 07:08:54;;;;;;;39.35;23.60;;;;;;;-145.63;100.00;61273.97;5027393;28;20052;-69
2024/01/28 07:11:19;;;;;;;39.95;22.70;;;;;;;-145.63;100.00;61273.97;5028760;28;20061;-69
2024/01/28 07:13:45;;;;;;;39.45;22.23;;;;;;;-145.63;100.00;61273.97;5032975;28;20109;-68
2024/01/28 07:16:12;;;;;;;41.08;23.92;;;;;;;-145.63;100.00;61273.97;5022566;28;20030;-68
2024/01/28 07:18:39;;;;;;;41.55;23.30;;;;;;;-145.63;100.00;61273.97;5024023;28;20429;-69
2024/01/28 07:21:05;;;;;;;41.63;25.15;;;;;;;-145.63;100.00;61273.97;5030586;28;20088;-68
2024/01/28 07:23:31;;;;;;;43.17;23.63;;;;;;;-145.63;100.00;61273.97;5016420;28;20033;-68
2024/01/28 07:25:56;;;;;;;38.13;23.83;;;;;;;-145.63;100.00;61273.97;5035487;28;20083;-68
2024/01/28 07:28:22;;;;;;;40.15;23.17;;;;;;;-145.63;100.00;61273.97;5028841;28;20030;-68
2024/01/28 07:30:48;;;;;;;45.45;24.23;;;;;;;-145.63;100.00;61273.97;5029046;28;20037;-70
2024/01/28 07:33:15;;;;;;;40.35;23.08;;;;;;;-145.63;100.00;61273.97;5027233;28;20033;-68
2024/01/28 07:35:41;;;;;;;38.28;22.63;;;;;;;-145.63;100.00;61273.97;5026257;28;20063;-68
2024/01/28 07:38:08;;;;;;;44.42;23.65;;;;;;;-145.63;100.00;61273.97;5025248;28;20025;-68
2024/01/28 07:40:35;;;;;;;37.22;22.38;;;;;;;-145.63;100.00;61273.97;5028849;28;20387;-67
2024/01/28 07:43:00;;;;;;;40.40;21.90;;;;;;;-145.63;100.00;61273.97;5029735;28;20053;-69
2024/01/28 07:45:26;;;;;;;35.58;21.85;;;;;;;-145.63;100.00;61273.97;5028883;28;20059;-70
2024/01/28 07:47:52;;;;;;;40.53;23.23;;;;;;;-145.63;100.00;61273.97;5029268;28;20053;-69
2024/01/28 07:50:18;;;;;;;40.83;24.05;;;;;;;-145.63;100.00;61273.97;5028294;28;20133;-68
2024/01/28 07:52:44;;;;;;;38.53;22.73;;;;;;;-145.63;100.00;61273.97;5029733;28;20133;-66
2024/01/28 07:55:13;;;;;;;38.72;23.20;;;;;;;-145.63;100.00;61273.97;5027151;28;20037;-68
2024/01/28 07:57:39;;;;;;;36.70;22.38;;;;;;;-145.63;100.00;61273.97;5022639;28;20080;-68
2024/01/28 08:00:10;;;;;;;38.03;20.85;;;;;;;-145.63;100.00;61273.97;5027036;28;20026;-69
2024/01/28 08:02:36;;;;;;;42.17;23.17;;;;;;;-145.63;100.00;61273.97;5025027;28;20379;-66
2024/01/28 08:05:02;;;;;;;40.17;22.90;;;;;;;-145.63;100.00;61273.97;5033043;28;20041;-66
2024/01/28 08:07:29;;;;;;;43.13;25.58;;;;;;;-145.63;100.00;61273.97;5033672;28;20034;-66
2024/01/28 08:09:55;;;;;;;39.38;23.75;;;;;;;-145.63;100.00;61273.97;5034731;28;20509;-67
2024/01/28 08:12:20;;;;;;;40.72;23.92;;;;;;;-145.63;100.00;61273.97;5025156;28;20033;-65
2024/01/28 08:14:46;;;;;;;38.38;23.77;;;;;;;-145.63;100.00;61273.97;5031087;28;20048;-65
2024/01/28 08:17:12;;;;;;;39.55;23.38;;;;;;;-145.63;100.00;61273.97;5032605;28;20491;-65
2024/01/28 08:19:38;;;;;;;39.50;23.48;;;;;;;-145.63;100.00;61273.97;5031896;28;20103;-66
2024/01/28 08:22:04;;;;;;;41.00;24.00;;;;;;;-145.63;100.00;61273.97;5026878;28;20098;-67
2024/01/28 08:24:30;;;;;;;46.58;25.27;;;;;;;-145.63;100.00;61273.97;5034447;28;20481;-64
2024/01/28 08:26:56;;;;;;;41.45;23.70;;;;;;;-145.63;100.00;61273.97;5016927;28;20052;-68
2024/01/28 08:29:23;;;;;;;43.75;25.38;;;;;;;-145.63;100.00;61273.97;5034873;28;20045;-67
2024/01/28 08:31:49;;;;;;;38.97;23.45;;;;;;;-145.63;100.00;61273.97;5033587;28;20065;-67
2024/01/28 08:34:15;;;;;;;39.90;23.70;;;;;;;-145.63;100.00;61273.97;5034899;28;20037;-68
2024/01/28 08:36:40;;;;;;;40.90;23.75;;;;;;;-145.63;100.00;61273.97;5026806;28;20432;-66
2024/01/28 08:39:09;;;;;;;41.53;23.15;;;;;;;-145.63;100.00;61273.97;5034361;28;20406;-70
2024/01/28 08:41:39;;;;;;;38.47;22.35;;;;;;;-145.63;100.00;61273.97;5033164;28;20029;-67
2024/01/28 08:44:05;;;;;;;39.20;22.17;;;;;;;-145.63;100.00;61273.97;5024663;28;20025;-69
2024/01/28 08:46:31;;;;;;;41.30;24.15;;;;;;;-145.63;100.00;61273.97;5021474;28;20037;-67
2024/01/28 08:48:58;;;;;;;39.67;23.48;;;;;;;-145.63;100.00;61273.97;5025413;28;20029;-68
2024/01/28 08:51:24;;;;;;;37.97;22.40;;;;;;;-145.63;100.00;61273.97;5030556;28;20030;-67
2024/01/28 08:53:50;;;;;;;37.78;21.65;;;;;;;-145.63;100.00;61273.97;5034469;28;20041;-68
2024/01/28 08:56:15;;;;;;;40.53;23.80;;;;;;;-145.63;100.00;61273.97;5028025;28;20041;-68
2024/01/28 08:58:41;;;;;;;41.92;23.98;;;;;;;-145.63;100.00;61273.97;5032963;28;20490;-65
2024/01/28 09:01:08;;;;;;;45.00;23.70;;;;;;;-145.63;100.00;61273.97;5027789;28;20032;-67
2024/01/28 09:03:34;;;;;;;40.03;24.13;;;;;;;-145.63;100.00;61273.97;5029767;28;20030;-68
2024/01/28 09:06:02;;;;;;;38.65;23.67;;;;;;;-145.63;100.00;61273.97;5032886;28;20041;-66
2024/01/28 09:08:30;;;;;;;37.55;22.85;;;;;;;-145.63;100.00;61273.97;5034463;28;20037;-66
2024/01/28 09:10:56;;;;;;;42.95;24.60;;;;;;;-145.63;100.00;61273.97;5028963;28;20045;-68
2024/01/28 09:13:24;;;;;;;37.30;22.75;;;;;;;-145.63;100.00;61273.97;5029062;28;20754;-67
2024/01/28 09:15:50;;;;;;;37.22;23.30;;;;;;;-145.63;100.00;61273.97;5029672;28;20036;-67
2024/01/28 09:18:16;;;;;;;38.95;22.50;;;;;;;-145.63;100.00;61273.97;5031128;28;20479;-66
2024/01/28 09:20:42;;;;;;;40.00;24.38;;;;;;;-145.63;100.00;61273.97;5030635;28;20164;-68
2024/01/28 09:23:08;;;;;;;38.22;23.08;;;;;;;-145.63;100.00;61273.97;5016607;28;20033;-68
2024/01/28 09:25:34;;;;;;;31.95;20.67;;;;;;;-145.63;100.00;61273.97;5029340;28;20443;-67
2024/01/28 09:28:00;;;;;;;39.83;22.67;;;;;;;-145.63;100.00;61273.97;5029010;28;20037;-69
2024/01/28 09:30:26;;;;;;;37.65;23.15;;;;;;;-145.63;100.00;61273.97;5020958;28;20104;-69
2024/01/28 09:32:51;;;;;;;40.45;23.40;;;;;;;-145.63;100.00;61273.97;5021783;28;20552;-69
2024/01/28 09:35:17;;;;;;;36.75;22.70;;;;;;;-145.63;100.00;61273.97;5033663;28;20120;-69
2024/01/28 09:37:43;;;;;;;37.35;23.33;;;;;;;-145.63;100.00;61273.97;5018647;28;20045;-67
2024/01/28 09:40:13;;;;;;;40.65;23.70;;;;;;;-145.63;100.00;61273.97;5026625;28;20037;-67
2024/01/28 09:42:50;;;;;;;38.78;23.60;;;;;;;-145.63;100.00;61273.97;5020471;28;20124;-68
2024/01/28 09:45:16;;;;;;;34.95;22.45;;;;;;;-145.63;100.00;61273.97;5036304;28;20099;-68
2024/01/28 09:47:42;;;;;;;39.83;23.27;;;;;;;-145.63;100.00;61273.97;5022245;28;20500;-67
2024/01/28 09:50:10;;;;;;;31.67;21.42;;;;;;;-145.63;100.00;61273.97;5023846;28;20036;-67
2024/01/28 09:52:36;;;;;;;34.25;20.52;;;;;;;-145.63;100.00;61273.97;5022810;28;20381;-66
2024/01/28 09:55:03;;;;;;;36.78;21.13;;;;;;;-145.63;100.00;61273.97;5026554;28;20156;-70
2024/01/28 09:57:30;;;;;;;37.15;21.85;;;;;;;-145.63;100.00;61273.97;5025019;28;20056;-67
2024/01/28 09:59:56;;;;;;;33.22;20.77;;;;;;;-145.63;100.00;61273.97;4998176;28;20387;-66
2024/01/28 10:02:22;;;;;;;33.30;21.70;;;;;;;-145.63;100.00;61273.97;5030484;28;20052;-67
2024/01/28 10:04:48;;;;;;;39.47;21.05;;;;;;;-145.63;100.00;61273.97;5030719;28;20024;-66
2024/01/28 10:07:15;;;;;;;38.38;21.42;;;;;;;-145.63;100.00;61273.97;5025665;28;20245;-67
2024/01/28 10:09:41;;;;;;;41.80;28.67;;;;;;;-145.63;100.00;61273.97;5031835;28;20034;-66
2024/01/28 10:12:09;;;;;;;34.33;20.75;;;;;;;-145.63;100.00;61273.97;5025799;28;20036;-65
2024/01/28 10:14:34;;;;;;;35.47;22.77;;;;;;;-145.63;100.00;61273.97;5033033;28;20073;-66
2024/01/28 10:17:00;;;;;;;39.60;23.17;;;;;;;-145.63;100.00;61273.97;5031140;28;20057;-66
2024/01/28 10:19:26;;;;;;;37.65;23.50;;;;;;;-145.63;100.00;61273.97;5030207;28;20525;-66
2024/01/28 10:21:52;;;;;;;35.80;20.83;;;;;;;-145.63;100.00;61273.97;5032399;28;20930;-67
2024/01/28 10:24:19;;;;;;;31.27;21.40;;;;;;;-145.63;100.00;61273.97;5028191;28;20026;-65
2024/01/28 10:26:45;;;;;;;34.28;21.08;;;;;;;-145.63;100.00;61273.97;5017082;28;20031;-68
2024/01/28 10:29:12;;;;;;;33.15;21.23;;;;;;;-145.63;100.00;61273.97;5030626;28;20057;-65
2024/01/28 10:31:38;;;;;;;35.72;22.08;;;;;;;-145.63;100.00;61273.97;5031984;28;20029;-66
2024/01/28 10:34:03;;;;;;;35.38;21.05;;;;;;;-145.63;100.00;61273.97;5032210;28;20376;-64
2024/01/28 10:36:39;;;;;;;33.53;20.98;;;;;;;-145.63;100.00;61273.97;5026086;28;20046;-65
2024/01/28 10:39:05;;;;;;;32.13;21.25;;;;;;;-145.63;100.00;61273.97;5017486;28;20093;-67
2024/01/28 10:41:32;;;;;;;33.10;20.75;;;;;;;-145.63;100.00;61273.97;5023026;28;20374;-67
2024/01/28 10:44:02;;;;;;;36.25;21.00;;;;;;;-145.63;100.00;61273.97;5031834;28;20406;-67
2024/01/28 10:46:44;;;;;;;32.63;20.92;;;;;;;-145.63;100.00;61273.97;5040969;28;20045;-66
2024/01/28 10:49:11;;;;;;;31.95;21.30;;;;;;;-145.63;100.00;61273.97;5031265;28;20133;-68
2024/01/28 10:51:39;;;;;;;35.20;21.42;;;;;;;-145.63;100.00;61273.97;5030641;28;20033;-67